Time;durP1;ratioP1;P1;durP2;ratioP2;P2;SDS_P1;SDS_P2;PMS_P1;PMS_P2;Temp;Humidity;BMP_temperature;BMP_pressure;BME280_temperature;BME280_humidity;BME280_pressure;Samples;Min_cycle;Max_cycle;Signal;HPM_P1;HPM_P2
2022/03/14 00:00:59;;;;;;;2.80;1.63;;;;;;;18.37;30.24;101345.72;5048736;28;20061;-73
2022/03/14 00:03:28;;;;;;;3.40;1.73;;;;;;;18.36;30.50;101350.38;5043244;28;20056;-74
2022/03/14 00:05:55;;;;;;;2.75;1.65;;;;;;;18.35;30.42;101359.63;5028495;28;20049;-73
2022/03/14 00:08:24;;;;;;;2.60;1.60;;;;;;;18.34;30.32;101355.16;5049552;28;20045;-74
2022/03/14 00:10:52;;;;;;;2.55;1.58;;;;;;;18.32;30.70;101361.78;5036627;28;20510;-73
2022/03/14 00:13:19;;;;;;;3.05;1.85;;;;;;;18.31;30.60;101368.28;5049696;28;20053;-74
2022/03/14 00:15:46;;;;;;;2.70;1.65;;;;;;;18.29;30.28;101364.81;5049075;28;20044;-74
2022/03/14 00:18:13;;;;;;;2.80;1.70;;;;;;;18.28;30.33;101360.34;5032480;28;20095;-74
2022/03/14 00:20:41;;;;;;;2.30;1.48;;;;;;;18.26;30.70;101360.47;5051192;28;20500;-73
2022/03/14 00:23:08;;;;;;;2.83;1.65;;;;;;;18.24;30.78;101368.84;5049943;28;20078;-74
2022/03/14 00:25:36;;;;;;;3.20;1.90;;;;;;;18.21;30.91;101365.50;5032460;28;20440;-73
2022/03/14 00:28:04;;;;;;;3.10;1.88;;;;;;;18.18;30.94;101372.16;5051135;28;20107;-73
2022/03/14 00:30:31;;;;;;;2.63;1.70;;;;;;;18.13;31.21;101377.19;5048269;28;20045;-73
2022/03/14 00:32:58;;;;;;;3.53;2.05;;;;;;;18.07;31.16;101383.25;5046831;28;20080;-72
2022/03/14 00:35:25;;;;;;;3.95;1.90;;;;;;;18.03;31.07;101375.44;5044477;28;20045;-73
2022/03/14 00:37:52;;;;;;;3.28;1.80;;;;;;;17.99;31.21;101362.97;5046798;28;20107;-73
2022/03/14 00:40:18;;;;;;;3.63;1.80;;;;;;;17.96;31.11;101364.09;5049586;28;20504;-73
2022/03/14 00:42:50;;;;;;;3.53;1.90;;;;;;;17.92;31.42;101384.63;5051310;28;20064;-73
2022/03/14 00:45:17;;;;;;;2.75;1.90;;;;;;;17.89;31.23;101384.88;5048326;28;20045;-73
2022/03/14 00:47:44;;;;;;;3.47;1.88;;;;;;;17.88;31.70;101383.16;5030509;28;20461;-73
2022/03/14 00:50:11;;;;;;;3.40;2.08;;;;;;;17.87;31.56;101373.19;5048456;28;20057;-73
2022/03/14 00:52:38;;;;;;;3.50;1.92;;;;;;;17.85;31.76;101386.19;5050780;28;20486;-73
2022/03/14 00:55:05;;;;;;;2.80;1.90;;;;;;;17.82;31.70;101381.81;5043250;28;20118;-73
2022/03/14 00:57:32;;;;;;;3.17;1.88;;;;;;;17.81;31.52;101392.94;5049462;28;20131;-73
2022/03/14 00:59:58;;;;;;;3.22;2.00;;;;;;;17.80;31.67;101403.06;5037726;28;20080;-73
2022/03/14 01:02:25;;;;;;;3.42;2.10;;;;;;;17.81;31.72;101409.41;5045517;28;20045;-73
2022/03/14 01:04:52;;;;;;;2.53;1.90;;;;;;;17.81;31.68;101412.16;5048308;28;20045;-73
2022/03/14 01:07:19;;;;;;;2.92;1.65;;;;;;;17.81;31.85;101423.16;5049677;28;20049;-73
2022/03/14 01:09:46;;;;;;;3.45;1.80;;;;;;;17.82;31.79;101413.91;5048770;28;20049;-73
2022/03/14 01:12:13;;;;;;;2.92;2.00;;;;;;;17.82;32.15;101413.91;5045393;28;20056;-73
2022/03/14 01:14:43;;;;;;;2.15;1.48;;;;;;;17.83;32.04;101433.00;5049534;28;20255;-73
2022/03/14 01:17:11;;;;;;;2.50;1.50;;;;;;;17.84;31.82;101428.38;5046396;28;20048;-73
2022/03/14 01:19:38;;;;;;;2.83;1.60;;;;;;;17.83;31.83;101435.75;5048598;28;20045;-73
2022/03/14 01:22:10;;;;;;;2.92;1.55;;;;;;;17.85;31.86;101436.50;5049540;28;20045;-73
2022/03/14 01:24:42;;;;;;;2.72;1.73;;;;;;;17.83;31.78;101435.75;5047739;28;20049;-73
2022/03/14 01:27:09;;;;;;;2.85;1.67;;;;;;;17.84;31.89;101443.00;5045800;28;20084;-73
2022/03/14 01:29:38;;;;;;;2.95;1.77;;;;;;;17.83;32.18;101441.25;5047952;28;20127;-73
2022/03/14 01:32:06;;;;;;;2.88;1.60;;;;;;;17.86;32.10;101440.13;5036468;28;20061;-73
2022/03/14 01:34:34;;;;;;;2.90;1.70;;;;;;;17.83;31.76;101434.88;5030552;28;20512;-73
2022/03/14 01:37:02;;;;;;;2.72;1.67;;;;;;;17.83;31.87;101437.63;5031967;28;20114;-73
2022/03/14 01:39:29;;;;;;;2.60;1.75;;;;;;;17.81;31.94;101442.38;5033639;28;20185;-73
2022/03/14 01:41:57;;;;;;;3.55;1.90;;;;;;;17.81;31.88;101447.88;5033446;28;20076;-73
2022/03/14 01:44:25;;;;;;;2.88;1.70;;;;;;;17.80;32.19;101451.63;5047694;28;20518;-73
2022/03/14 01:46:53;;;;;;;2.08;1.25;;;;;;;17.80;32.61;101451.63;5048298;28;20056;-73
2022/03/14 01:49:20;;;;;;;2.47;1.50;;;;;;;17.79;32.19;101444.38;5031526;28;20048;-73
2022/03/14 01:51:47;;;;;;;2.83;1.63;;;;;;;17.78;32.24;101459.16;5049828;28;20404;-73
2022/03/14 01:54:14;;;;;;;2.53;1.50;;;;;;;17.76;32.80;101464.78;5029832;28;20049;-73
2022/03/14 01:56:43;;;;;;;2.88;1.40;;;;;;;17.76;32.47;101464.78;5048196;28;20075;-73
2022/03/14 01:59:10;;;;;;;3.25;1.80;;;;;;;17.75;32.71;101464.91;5035582;28;20049;-73
2022/03/14 02:01:37;;;;;;;3.15;1.98;;;;;;;17.75;32.95;101464.91;5039202;28;20053;-73
2022/03/14 02:04:08;;;;;;;3.10;2.00;;;;;;;17.74;33.15;101477.75;5045740;28;20059;-73
2022/03/14 02:06:35;;;;;;;3.80;1.52;;;;;;;17.73;32.83;101469.66;5046364;28;20079;-73
2022/03/14 02:09:06;;;;;;;2.42;1.60;;;;;;;17.76;33.92;101480.38;5046926;28;20450;-73
2022/03/14 02:11:33;;;;;;;3.00;1.75;;;;;;;17.72;33.42;101478.91;5048606;28;20087;-73
2022/03/14 02:13:59;;;;;;;3.30;1.92;;;;;;;17.72;33.70;101482.50;5048683;28;20535;-73
2022/03/14 02:16:26;;;;;;;3.33;1.70;;;;;;;17.73;34.02;101488.88;5047253;28;20106;-73
2022/03/14 02:18:55;;;;;;;3.80;2.17;;;;;;;17.72;33.94;101493.50;5047987;28;20083;-72
2022/03/14 02:21:22;;;;;;;2.85;1.92;;;;;;;17.71;33.77;101497.25;5048750;28;20079;-72
2022/03/14 02:23:48;;;;;;;3.05;1.90;;;;;;;17.70;34.22;101487.28;5048122;28;20072;-72
2022/03/14 02:26:18;;;;;;;4.30;2.05;;;;;;;17.70;34.08;101494.66;5048231;28;20041;-71
2022/03/14 02:28:44;;;;;;;2.92;1.92;;;;;;;17.67;34.18;101495.78;5047657;28;20110;-72
2022/03/14 02:31:11;;;;;;;3.60;1.77;;;;;;;17.67;34.33;101500.41;5044532;28;20085;-72
2022/03/14 02:33:39;;;;;;;2.88;1.92;;;;;;;17.66;34.61;101507.75;5047003;28;20053;-72
2022/03/14 02:36:06;;;;;;;3.20;1.70;;;;;;;17.64;34.26;101509.75;5048626;28;20060;-72
2022/03/14 02:38:33;;;;;;;3.15;1.92;;;;;;;17.63;34.46;101505.28;5041213;28;20193;-73
2022/03/14 02:41:00;;;;;;;3.53;2.03;;;;;;;17.62;34.75;101510.94;5049230;28;20085;-73
2022/03/14 02:43:26;;;;;;;3.45;1.95;;;;;;;17.59;34.98;101509.28;5033255;28;20087;-74
2022/03/14 02:45:54;;;;;;;4.22;2.20;;;;;;;17.57;35.10;101516.75;5052228;28;20045;-76
2022/03/14 02:48:25;;;;;;;3.20;2.03;;;;;;;17.55;35.22;101513.25;5050233;28;20041;-78
2022/03/14 02:50:53;;;;;;;4.55;2.38;;;;;;;17.53;35.32;101519.91;5039818;28;20048;-77
2022/03/14 02:53:21;;;;;;;4.30;2.38;;;;;;;17.49;35.63;101517.41;5052276;28;20075;-77
2022/03/14 02:55:48;;;;;;;4.47;2.42;;;;;;;17.48;35.80;101515.66;5052599;28;20421;-76
2022/03/14 02:58:15;;;;;;;4.05;2.40;;;;;;;17.46;36.20;101525.03;5040216;28;20132;-79
2022/03/14 03:00:42;;;;;;;3.97;2.33;;;;;;;17.43;36.33;101533.53;5036223;28;20137;-77
2022/03/14 03:03:12;;;;;;;4.70;2.55;;;;;;;17.41;36.56;101535.53;5039786;28;20044;-77
2022/03/14 03:05:43;;;;;;;4.38;2.50;;;;;;;17.39;36.97;101543.03;5052484;28;20568;-76
2022/03/14 03:08:12;;;;;;;4.30;2.42;;;;;;;17.36;36.85;101543.31;5035391;28;20057;-77
2022/03/14 03:10:41;;;;;;;4.45;2.65;;;;;;;17.32;36.22;101552.78;5053290;28;20381;-77
2022/03/14 03:13:10;;;;;;;4.18;2.72;;;;;;;17.30;38.29;101552.03;5051868;28;20049;-78
2022/03/14 03:15:37;;;;;;;4.18;2.30;;;;;;;17.25;37.27;101557.06;5061145;28;20408;-76
2022/03/14 03:18:06;;;;;;;3.90;2.45;;;;;;;17.22;37.32;101566.41;5044612;28;20033;-77
2022/03/14 03:20:33;;;;;;;5.32;2.70;;;;;;;17.18;37.93;101564.06;5053063;28;20064;-76
2022/03/14 03:23:01;;;;;;;4.78;2.70;;;;;;;17.15;38.12;101565.16;5054290;28;20556;-77
2022/03/14 03:25:28;;;;;;;5.10;2.63;;;;;;;17.13;38.17;101572.66;5049854;28;20488;-77
2022/03/14 03:27:55;;;;;;;4.18;2.40;;;;;;;17.09;37.76;101577.53;5050099;28;20045;-76
2022/03/14 03:30:23;;;;;;;4.18;2.30;;;;;;;17.07;38.05;101587.75;5040274;28;20045;-76
2022/03/14 03:32:49;;;;;;;4.00;2.50;;;;;;;17.03;38.06;101594.50;5051194;28;20063;-77
2022/03/14 03:35:16;;;;;;;3.47;2.13;;;;;;;17.00;38.19;101596.63;5048236;28;20048;-77
2022/03/14 03:37:43;;;;;;;4.10;2.33;;;;;;;16.97;38.58;101603.22;5034559;28;20053;-77
2022/03/14 03:40:10;;;;;;;3.75;2.63;;;;;;;16.96;38.66;101603.38;5051209;28;20045;-77
2022/03/14 03:42:37;;;;;;;5.00;2.63;;;;;;;16.92;38.97;101602.75;5051761;28;20041;-77
2022/03/14 03:45:05;;;;;;;4.80;2.65;;;;;;;16.90;39.12;101601.13;5051076;28;20369;-77
2022/03/14 03:47:32;;;;;;;4.43;2.83;;;;;;;16.87;39.19;101605.00;5026374;28;20137;-77
2022/03/14 03:49:59;;;;;;;5.15;3.40;;;;;;;16.84;39.46;101612.59;5049694;28;20123;-77
2022/03/14 03:52:26;;;;;;;5.20;2.90;;;;;;;16.80;39.22;101611.94;5047059;28;20049;-77
2022/03/14 03:54:53;;;;;;;4.47;2.83;;;;;;;16.78;39.47;101616.72;5032702;28;20192;-77
2022/03/14 03:57:20;;;;;;;5.53;3.10;;;;;;;16.76;39.00;101620.56;5051913;28;20064;-77
2022/03/14 03:59:47;;;;;;;5.80;3.22;;;;;;;16.72;39.33;101617.19;5051113;28;20114;-77
2022/03/14 04:02:19;;;;;;;5.20;3.50;;;;;;;16.69;39.35;101615.59;5038809;28;20049;-77
2022/03/14 04:04:48;;;;;;;5.00;3.50;;;;;;;16.66;39.67;101636.88;5032166;28;20419;-77
2022/03/14 04:07:19;;;;;;;5.13;2.95;;;;;;;16.62;39.67;101639.00;5033631;28;20044;-77
2022/03/14 04:09:56;;;;;;;5.18;3.45;;;;;;;16.60;39.44;101645.56;5050548;28;20049;-77
2022/03/14 04:12:25;;;;;;;5.45;3.40;;;;;;;16.58;39.83;101644.81;5047706;28;20045;-77
2022/03/14 04:14:53;;;;;;;5.30;3.22;;;;;;;16.54;40.13;101649.69;5048904;28;20087;-77
2022/03/14 04:17:20;;;;;;;5.05;3.40;;;;;;;16.51;40.09;101658.13;5041952;28;20045;-77
2022/03/14 04:19:48;;;;;;;4.45;3.22;;;;;;;16.48;40.31;101658.38;5046847;28;20098;-77
2022/03/14 04:22:15;;;;;;;5.95;3.45;;;;;;;16.45;40.11;101658.63;5033818;28;20049;-77
2022/03/14 04:24:42;;;;;;;5.05;3.60;;;;;;;16.43;40.29;101657.88;5045391;28;20086;-77
2022/03/14 04:27:09;;;;;;;5.72;3.70;;;;;;;16.42;40.49;101668.94;5032705;28;20052;-77
2022/03/14 04:29:36;;;;;;;4.53;3.17;;;;;;;16.39;40.38;101669.19;5036734;28;20052;-76
2022/03/14 04:32:03;;;;;;;5.25;3.33;;;;;;;16.36;40.54;101671.19;5051578;28;20371;-77
2022/03/14 04:34:31;;;;;;;5.90;3.60;;;;;;;16.35;40.66;101676.78;5049850;28;20095;-77
2022/03/14 04:36:58;;;;;;;5.38;3.00;;;;;;;16.33;40.40;101676.03;5021994;28;20056;-77
2022/03/14 04:39:25;;;;;;;4.60;3.50;;;;;;;16.31;40.85;101684.34;5030129;28;20045;-77
2022/03/14 04:41:53;;;;;;;5.15;2.90;;;;;;;16.29;40.75;101682.75;5029821;28;20056;-77
2022/03/14 04:44:21;;;;;;;4.47;2.75;;;;;;;16.26;40.61;101692.06;5031698;28;20056;-77
2022/03/14 04:46:48;;;;;;;4.43;2.83;;;;;;;16.25;41.27;101694.91;5045149;28;20081;-77
2022/03/14 04:49:15;;;;;;;3.80;2.53;;;;;;;16.23;41.42;101695.03;5026071;28;20082;-77
2022/03/14 04:51:43;;;;;;;6.10;3.08;;;;;;;16.23;41.10;101702.38;5051128;28;20071;-77
2022/03/14 04:54:10;;;;;;;4.32;2.72;;;;;;;16.21;41.31;101705.25;5043059;28;20527;-77
2022/03/14 04:56:37;;;;;;;4.75;3.03;;;;;;;16.20;41.31;101702.63;5031897;28;20087;-77
2022/03/14 04:59:04;;;;;;;4.63;2.80;;;;;;;16.20;41.36;101710.84;5049045;28;20515;-78
2022/03/14 05:01:31;;;;;;;4.15;2.70;;;;;;;16.18;41.66;101705.47;5051586;28;20110;-77
2022/03/14 05:03:58;;;;;;;3.95;2.67;;;;;;;16.17;41.65;101711.94;5046026;28;20045;-78
2022/03/14 05:06:25;;;;;;;4.72;2.92;;;;;;;16.15;41.82;101716.66;5044956;28;20050;-78
2022/03/14 05:08:52;;;;;;;4.45;2.70;;;;;;;16.16;42.12;101721.16;5025424;28;20115;-77
2022/03/14 05:11:19;;;;;;;4.72;3.13;;;;;;;16.15;41.94;101719.41;5049755;28;20053;-77
2022/03/14 05:13:46;;;;;;;4.68;3.13;;;;;;;16.15;42.09;101733.09;5036337;28;20049;-77
2022/03/14 05:16:13;;;;;;;4.00;2.60;;;;;;;16.14;42.34;101728.63;5034548;28;20060;-77
2022/03/14 05:18:40;;;;;;;4.75;2.70;;;;;;;16.13;41.84;101731.50;5030213;28;20053;-78
2022/03/14 05:21:07;;;;;;;4.80;2.85;;;;;;;16.13;41.90;101739.72;5046459;28;20110;-77
2022/03/14 05:23:34;;;;;;;4.35;2.65;;;;;;;16.11;42.17;101742.56;5021643;28;20045;-78
2022/03/14 05:26:01;;;;;;;4.32;2.97;;;;;;;16.10;42.39;101745.41;5040935;28;20510;-77
2022/03/14 05:28:28;;;;;;;4.78;2.90;;;;;;;16.09;42.32;101744.53;5048526;28;20049;-77
2022/03/14 05:30:54;;;;;;;4.38;2.67;;;;;;;16.08;42.18;101751.00;5049272;28;20057;-77
2022/03/14 05:33:22;;;;;;;3.58;2.55;;;;;;;16.09;42.60;101751.88;5046236;28;20053;-78
2022/03/14 05:35:50;;;;;;;4.30;2.55;;;;;;;16.08;42.34;101756.50;5044754;28;20048;-76
2022/03/14 05:38:16;;;;;;;4.00;2.60;;;;;;;16.06;42.73;101768.56;5025875;28;20044;-76
2022/03/14 05:40:43;;;;;;;4.50;2.50;;;;;;;16.05;42.40;101766.81;5037675;28;20128;-77
2022/03/14 05:43:12;;;;;;;4.32;2.63;;;;;;;16.07;42.50;101779.38;5044399;28;20411;-77
2022/03/14 05:45:39;;;;;;;4.55;2.58;;;;;;;16.04;42.47;101782.38;5047792;28;20136;-77
2022/03/14 05:48:05;;;;;;;4.78;2.70;;;;;;;16.04;42.72;101781.50;5049760;28;20053;-76
2022/03/14 05:50:32;;;;;;;3.90;2.63;;;;;;;16.03;42.59;101786.09;5026305;28;20033;-76
2022/03/14 05:53:01;;;;;;;4.18;3.03;;;;;;;16.03;43.08;101786.09;5023619;28;20365;-76
2022/03/14 05:55:28;;;;;;;4.25;2.72;;;;;;;16.02;42.79;101792.56;5032879;28;20045;-76
2022/03/14 05:57:54;;;;;;;4.50;2.80;;;;;;;16.01;42.89;101788.06;5043838;28;20045;-76
2022/03/14 06:00:24;;;;;;;3.58;2.42;;;;;;;16.01;42.63;101790.81;5030849;28;20045;-77
2022/03/14 06:03:07;;;;;;;5.40;3.17;;;;;;;16.03;44.23;101791.59;5035073;28;20084;-77
2022/03/14 06:05:37;;;;;;;4.95;2.65;;;;;;;15.99;43.02;101804.63;5026002;28;20494;-77
2022/03/14 06:08:05;;;;;;;4.13;2.80;;;;;;;16.00;42.98;101808.22;5034490;28;20045;-78
2022/03/14 06:10:32;;;;;;;4.43;2.88;;;;;;;15.99;42.59;101804.63;5045603;28;20492;-77
2022/03/14 06:13:02;;;;;;;4.10;2.97;;;;;;;15.99;42.56;101807.34;5036948;28;20053;-78
2022/03/14 06:15:33;;;;;;;3.80;2.17;;;;;;;15.97;42.66;101806.63;5003417;28;20492;-78
2022/03/14 06:18:00;;;;;;;4.07;2.13;;;;;;;15.98;42.19;101812.94;5052324;28;20049;-78
2022/03/14 06:20:27;;;;;;;4.45;2.40;;;;;;;15.95;42.40;101811.31;5047272;28;20041;-78
2022/03/14 06:22:54;;;;;;;3.17;1.98;;;;;;;15.94;41.94;101811.44;5042452;28;20052;-78
2022/03/14 06:25:20;;;;;;;3.97;2.10;;;;;;;15.93;42.24;101821.50;5049078;28;20459;-77
2022/03/14 06:27:47;;;;;;;3.70;1.92;;;;;;;15.92;42.00;101829.84;5023605;28;20543;-77
2022/03/14 06:30:15;;;;;;;3.42;2.17;;;;;;;15.91;42.19;101823.47;5003084;28;20559;-77
2022/03/14 06:32:43;;;;;;;3.28;1.80;;;;;;;15.91;42.34;101825.34;5027314;28;20045;-77
2022/03/14 06:35:14;;;;;;;3.78;2.13;;;;;;;15.88;42.45;101825.59;5045571;28;20074;-78
2022/03/14 06:37:45;;;;;;;3.08;1.90;;;;;;;15.86;43.22;101825.69;5049048;28;20045;-77
2022/03/14 06:40:13;;;;;;;3.50;2.00;;;;;;;15.83;42.48;101841.47;5049756;28;20133;-77
2022/03/14 06:42:41;;;;;;;2.90;1.50;;;;;;;15.81;42.56;101838.00;5031684;28;20056;-77
2022/03/14 06:45:09;;;;;;;2.78;1.60;;;;;;;15.82;42.74;101843.31;5045437;28;20045;-77
2022/03/14 06:47:38;;;;;;;3.35;1.77;;;;;;;15.79;42.80;101846.31;5051080;28;20045;-77
2022/03/14 06:50:10;;;;;;;3.60;1.90;;;;;;;15.81;43.29;101858.00;5047899;28;20088;-77
2022/03/14 06:52:37;;;;;;;3.20;1.90;;;;;;;15.77;42.80;101861.09;5048352;28;20095;-78
2022/03/14 06:55:05;;;;;;;5.32;1.80;;;;;;;15.78;42.70;101860.09;5029654;28;20053;-78
2022/03/14 06:57:32;;;;;;;3.53;1.90;;;;;;;15.77;42.44;101864.69;5048960;28;20135;-78
2022/03/14 06:59:59;;;;;;;2.78;1.80;;;;;;;15.76;42.47;101862.94;5039342;28;20049;-78
2022/03/14 07:02:27;;;;;;;5.03;2.40;;;;;;;15.76;42.82;101865.69;5037150;28;20106;-77
2022/03/14 07:04:54;;;;;;;3.17;2.00;;;;;;;15.76;42.78;101870.28;5033428;28;20095;-77
2022/03/14 07:07:21;;;;;;;3.38;1.88;;;;;;;15.75;42.90;101876.75;5035183;28;20059;-79
2022/03/14 07:09:48;;;;;;;4.50;2.28;;;;;;;15.75;43.05;101876.75;5012190;28;20053;-78
2022/03/14 07:12:15;;;;;;;3.53;2.08;;;;;;;15.74;43.03;101880.47;5045429;28;20156;-78
2022/03/14 07:14:42;;;;;;;3.85;2.05;;;;;;;15.74;43.39;101892.28;5049094;28;20543;-78
2022/03/14 07:17:16;;;;;;;4.30;2.15;;;;;;;15.73;43.00;101887.81;5049327;28;20044;-78
2022/03/14 07:19:45;;;;;;;4.35;2.00;;;;;;;15.73;42.99;101898.75;5053220;28;20099;-78
2022/03/14 07:22:19;;;;;;;4.07;2.50;;;;;;;15.74;42.73;101905.09;5028788;28;20053;-78
2022/03/14 07:24:51;;;;;;;5.25;2.92;;;;;;;15.73;43.07;101904.22;5044412;28;20068;-78
2022/03/14 07:27:18;;;;;;;5.38;2.03;;;;;;;15.73;43.10;101906.97;5049307;28;20476;-78
2022/03/14 07:29:45;;;;;;;4.07;2.20;;;;;;;15.72;43.31;101916.19;5041947;28;20044;-78
2022/03/14 07:32:13;;;;;;;4.80;2.10;;;;;;;15.73;43.04;101914.34;5053504;28;20067;-78
2022/03/14 07:34:40;;;;;;;4.15;2.20;;;;;;;15.73;43.36;101920.66;5034777;28;20095;-78
2022/03/14 07:37:08;;;;;;;3.83;2.20;;;;;;;15.72;43.39;101918.94;5034616;28;20094;-77
2022/03/14 07:39:35;;;;;;;2.53;1.67;;;;;;;15.73;43.58;101930.78;5048167;28;20038;-78
2022/03/14 07:42:02;;;;;;;4.97;2.13;;;;;;;15.74;43.57;101930.63;5028928;28;20053;-78
2022/03/14 07:44:28;;;;;;;4.45;2.10;;;;;;;15.75;42.84;101931.50;5033844;28;20562;-78
2022/03/14 07:46:55;;;;;;;3.30;2.00;;;;;;;15.77;42.89;101945.97;5040410;28;20458;-79
2022/03/14 07:49:22;;;;;;;4.15;2.33;;;;;;;15.75;43.05;101939.72;5030878;28;20095;-79
2022/03/14 07:51:49;;;;;;;5.00;2.30;;;;;;;15.76;42.97;101952.44;5047062;28;20301;-79
2022/03/14 07:54:16;;;;;;;3.92;1.98;;;;;;;15.77;43.07;101951.44;5046139;28;20500;-78
2022/03/14 07:56:43;;;;;;;3.28;2.13;;;;;;;15.77;43.20;101956.94;5027811;28;20072;-79
2022/03/14 07:59:10;;;;;;;3.88;1.80;;;;;;;15.78;43.23;101953.22;5049764;28;20099;-78
2022/03/14 08:01:37;;;;;;;3.35;1.98;;;;;;;15.78;43.65;101959.56;5032551;28;20056;-78
2022/03/14 08:04:04;;;;;;;5.65;3.47;;;;;;;15.79;43.10;101965.91;5029249;28;20047;-78
2022/03/14 08:06:34;;;;;;;6.78;2.75;;;;;;;15.80;42.72;101974.03;5035991;28;20334;-78
2022/03/14 08:09:02;;;;;;;4.03;2.08;;;;;;;15.81;42.98;101983.13;5056116;28;20053;-78
2022/03/14 08:11:29;;;;;;;4.28;2.00;;;;;;;15.80;42.88;101982.25;5051177;28;20040;-78
2022/03/14 08:13:58;;;;;;;3.25;1.85;;;;;;;15.83;42.54;101986.59;5035768;28;20511;-78
2022/03/14 08:16:25;;;;;;;3.65;2.00;;;;;;;15.82;42.74;101990.31;5049440;28;20357;-78
2022/03/14 08:18:52;;;;;;;5.05;2.40;;;;;;;15.80;42.43;101987.72;5048440;28;20459;-78
2022/03/14 08:21:19;;;;;;;5.40;2.15;;;;;;;15.80;42.80;101992.31;5043394;28;20103;-78
2022/03/14 08:23:46;;;;;;;3.78;1.95;;;;;;;15.81;42.82;101994.06;5048336;28;20045;-78
2022/03/14 08:26:15;;;;;;;3.55;1.90;;;;;;;15.81;43.11;101999.56;5050772;28;20056;-78
2022/03/14 08:28:43;;;;;;;3.80;1.85;;;;;;;15.81;42.61;101994.06;5034305;28;20072;-78
2022/03/14 08:31:15;;;;;;;4.22;1.90;;;;;;;15.83;43.14;101995.69;5047693;28;20041;-78
2022/03/14 08:33:42;;;;;;;7.28;2.15;;;;;;;15.79;42.20;101996.91;5052590;28;20102;-79
2022/03/14 08:36:09;;;;;;;5.63;2.20;;;;;;;15.83;42.18;102003.03;5040807;28;20424;-78
2022/03/14 08:38:37;;;;;;;4.45;2.25;;;;;;;15.82;42.28;102006.75;5046199;28;20064;-79
2022/03/14 08:41:04;;;;;;;3.50;2.00;;;;;;;15.80;42.07;102008.75;5050612;28;20048;-78
2022/03/14 08:43:31;;;;;;;3.80;2.13;;;;;;;15.79;42.43;102020.69;5050085;28;20048;-79
2022/03/14 08:45:58;;;;;;;4.25;2.15;;;;;;;15.79;41.94;102026.16;5038278;28;20091;-78
2022/03/14 08:48:25;;;;;;;4.38;2.10;;;;;;;15.78;42.36;102018.94;5050324;28;20049;-79
2022/03/14 08:50:52;;;;;;;4.03;1.98;;;;;;;15.78;42.00;102030.75;5051338;28;20056;-78
2022/03/14 08:53:19;;;;;;;3.90;2.30;;;;;;;15.79;42.09;102040.72;5050361;28;20056;-79
2022/03/14 08:55:46;;;;;;;4.63;2.15;;;;;;;15.79;42.02;102038.00;5051306;28;20045;-79
2022/03/14 08:58:13;;;;;;;3.53;1.98;;;;;;;15.79;41.78;102042.59;5030267;28;20037;-79
2022/03/14 09:00:40;;;;;;;5.30;2.08;;;;;;;15.78;41.68;102041.72;5027507;28;20076;-80
2022/03/14 09:03:07;;;;;;;3.03;1.88;;;;;;;15.78;41.79;102040.84;5032650;28;20084;-79
2022/03/14 09:05:34;;;;;;;4.75;2.20;;;;;;;15.77;41.82;102045.44;5051150;28;20079;-79
2022/03/14 09:08:03;;;;;;;4.57;2.45;;;;;;;15.78;41.45;102052.66;5051004;28;20054;-79
2022/03/14 09:10:36;;;;;;;4.18;2.22;;;;;;;15.79;41.44;102048.06;5052600;28;20033;-80
2022/03/14 09:13:04;;;;;;;4.82;2.15;;;;;;;15.78;41.65;102049.94;5032171;28;20475;-79
2022/03/14 09:15:31;;;;;;;3.53;1.90;;;;;;;15.77;41.44;102055.50;5047309;28;20044;-79
2022/03/14 09:18:03;;;;;;;4.65;2.13;;;;;;;15.76;41.42;102054.63;5052837;28;20052;-79
2022/03/14 09:20:30;;;;;;;4.10;2.27;;;;;;;15.72;41.37;102057.69;5048313;28;20118;-79
2022/03/14 09:22:57;;;;;;;3.15;2.00;;;;;;;15.70;41.11;102063.28;5048164;28;20138;-80
2022/03/14 09:25:25;;;;;;;3.75;2.10;;;;;;;15.68;41.33;102067.09;5047975;28;20041;-79
2022/03/14 09:27:53;;;;;;;4.32;2.10;;;;;;;15.64;41.41;102065.56;5053946;28;20431;-79
2022/03/14 09:30:20;;;;;;;5.13;2.00;;;;;;;15.61;41.61;102072.13;5032844;28;20045;-79
2022/03/14 09:32:48;;;;;;;5.35;2.20;;;;;;;15.62;41.43;102079.34;5051345;28;20418;-80
2022/03/14 09:35:16;;;;;;;3.80;1.90;;;;;;;15.62;41.43;102082.09;5031354;28;20048;-80
2022/03/14 09:37:44;;;;;;;5.35;2.58;;;;;;;15.62;41.58;102086.69;5036710;28;20044;-79
2022/03/14 09:40:18;;;;;;;4.68;2.20;;;;;;;15.63;41.50;102091.19;5045019;28;20442;-80
2022/03/14 09:42:48;;;;;;;5.65;2.60;;;;;;;15.61;41.42;102099.50;5035360;28;20143;-80
2022/03/14 09:45:15;;;;;;;4.88;2.10;;;;;;;15.62;41.55;102104.00;5032098;28;20053;-80
2022/03/14 09:47:45;;;;;;;4.82;2.45;;;;;;;15.62;41.28;102101.25;5050660;28;20044;-80
2022/03/14 09:50:23;;;;;;;4.82;2.30;;;;;;;15.65;41.79;102105.66;5027292;28;20048;-81
2022/03/14 09:52:52;;;;;;;3.67;2.00;;;;;;;15.64;41.53;102112.09;5047930;28;20132;-80
2022/03/14 09:55:20;;;;;;;5.32;2.65;;;;;;;15.64;41.63;102113.00;5039942;28;20051;-80
2022/03/14 09:57:48;;;;;;;4.55;1.98;;;;;;;15.65;41.68;102117.44;5049141;28;20047;-80
2022/03/14 10:00:15;;;;;;;3.47;2.20;;;;;;;15.68;41.88;102124.59;5046320;28;20163;-80
2022/03/14 10:02:43;;;;;;;4.70;2.40;;;;;;;15.69;41.53;102119.00;5046059;28;20056;-80
2022/03/14 10:05:13;;;;;;;3.95;2.85;;;;;;;15.70;41.71;102120.78;5050727;28;20041;-80
2022/03/14 10:07:43;;;;;;;4.40;2.30;;;;;;;15.69;41.90;102129.97;5051588;28;20130;-81
2022/03/14 10:10:11;;;;;;;5.10;2.03;;;;;;;15.72;41.64;102131.63;5033708;28;20349;-81
2022/03/14 10:12:42;;;;;;;4.38;2.40;;;;;;;15.74;41.95;102133.25;5032329;28;20053;-81
2022/03/14 10:15:11;;;;;;;4.25;2.75;;;;;;;15.77;41.46;102137.66;5045830;28;20163;-81
2022/03/14 10:17:38;;;;;;;7.05;2.67;;;;;;;15.78;41.07;102145.78;5042705;28;20056;-80
2022/03/14 10:20:06;;;;;;;5.65;3.00;;;;;;;15.84;41.27;102141.72;5040671;28;20045;-81
2022/03/14 10:22:39;;;;;;;4.75;2.95;;;;;;;15.86;41.51;102145.25;5034202;28;20041;-81
2022/03/14 10:25:13;;;;;;;4.88;3.03;;;;;;;15.89;41.40;102150.53;4995661;28;20057;-80
2022/03/14 10:27:46;;;;;;;7.05;3.13;;;;;;;15.93;41.67;102154.78;5048063;28;20075;-80
2022/03/14 10:30:28;;;;;;;5.05;2.83;;;;;;;15.95;41.98;102153.72;5033588;28;20490;-80
2022/03/14 10:33:05;;;;;;;4.75;2.90;;;;;;;15.99;41.70;102157.09;5048965;28;20056;-80
2022/03/14 10:35:35;;;;;;;3.78;2.53;;;;;;;16.01;41.30;102160.63;5021546;28;20519;-81
2022/03/14 10:38:06;;;;;;;4.70;2.90;;;;;;;16.05;41.08;102153.97;5051927;28;20041;-81
2022/03/14 10:40:42;;;;;;;5.38;2.83;;;;;;;16.13;41.63;102167.13;5047544;28;20188;-81
2022/03/14 10:43:25;;;;;;;4.43;2.50;;;;;;;16.16;41.45;102167.78;5048510;28;20049;-81
2022/03/14 10:45:54;;;;;;;4.95;2.70;;;;;;;16.19;41.71;102169.44;5044577;28;20045;-81
2022/03/14 10:48:32;;;;;;;4.47;3.13;;;;;;;16.27;41.34;102167.03;5030289;28;20045;-81
2022/03/14 10:51:04;;;;;;;5.40;2.80;;;;;;;16.30;41.09;102173.19;5052561;28;20041;-81
2022/03/14 10:53:43;;;;;;;4.55;2.95;;;;;;;16.35;41.08;102175.59;5043836;28;20067;-82
2022/03/14 10:56:10;;;;;;;4.90;2.95;;;;;;;16.35;40.98;102172.84;5030762;28;20506;-82
2022/03/14 10:58:40;;;;;;;4.65;2.63;;;;;;;16.43;40.94;102172.31;5046910;28;20049;-82
2022/03/14 11:01:09;;;;;;;5.20;2.83;;;;;;;16.45;40.80;102168.50;5044522;28;20052;-82
2022/03/14 11:03:41;;;;;;;4.68;3.10;;;;;;;16.51;40.94;102173.53;5051259;28;20048;-82
2022/03/14 11:06:08;;;;;;;4.70;2.55;;;;;;;16.51;40.35;102170.78;5035189;28;20072;-81
2022/03/14 11:08:38;;;;;;;4.82;2.92;;;;;;;16.57;40.52;102178.56;5049243;28;20056;-81
2022/03/14 11:11:16;;;;;;;5.15;3.33;;;;;;;16.59;40.20;102168.38;5055671;28;20049;-81
2022/03/14 11:13:45;;;;;;;4.65;3.00;;;;;;;16.60;40.29;102175.63;5030669;28;20051;-80
2022/03/14 11:16:17;;;;;;;3.97;3.10;;;;;;;16.64;40.30;102176.28;5049890;28;20065;-81
2022/03/14 11:18:46;;;;;;;4.05;2.75;;;;;;;16.62;40.46;102172.81;5031173;28;20045;-81
2022/03/14 11:21:15;;;;;;;5.95;2.70;;;;;;;16.66;39.96;102169.72;5061599;28;20481;-82
2022/03/14 11:23:47;;;;;;;4.95;2.60;;;;;;;16.69;40.12;102177.75;5038476;28;20076;-81
2022/03/14 11:26:19;;;;;;;4.15;2.80;;;;;;;16.69;40.08;102168.63;5049315;28;20490;-81
2022/03/14 11:28:49;;;;;;;4.88;2.88;;;;;;;16.73;39.85;102164.66;5051276;28;20060;-81